Time;durP1;ratioP1;P1;durP2;ratioP2;P2;SDS_P1;SDS_P2;PMS_P1;PMS_P2;Temp;Humidity;BMP_temperature;BMP_pressure;BME280_temperature;BME280_humidity;BME280_pressure;Samples;Min_cycle;Max_cycle;Signal;HPM_P1;HPM_P2
2022/09/05 00:00:52;;;;;;;;;;;;;;;;;;5071559;28;19931;-61
2022/09/05 00:03:21;;;;;;;;;;;;;;;;;;5072664;28;19961;-61
2022/09/05 00:05:51;;;;;;;;;;;;;;;;;;5072386;28;19958;-60
2022/09/05 00:08:24;;;;;;;;;;;;;;;;;;5072797;28;19924;-60
2022/09/05 00:10:55;;;;;;;;;;;;;;;;;;5072715;28;20343;-59
2022/09/05 00:13:23;;;;;;;;;;;;;;;;;;5072322;28;20019;-61
2022/09/05 00:15:58;;;;;;;;;;;;;;;;;;5072350;28;19971;-61
2022/09/05 00:18:33;;;;;;;;;;;;;;;;;;5072434;28;19932;-60
2022/09/05 00:21:05;;;;;;;;;;;;;;;;;;5072168;28;19932;-60
2022/09/05 00:23:37;;;;;;;;;;;;;;;;;;5072739;28;20376;-60
2022/09/05 00:26:11;;;;;;;;;;;;;;;;;;5072426;28;19925;-60
2022/09/05 00:28:41;;;;;;;;;;;;;;;;;;5072300;28;19931;-60
2022/09/05 00:31:15;;;;;;;;;;;;;;;;;;5072464;28;19967;-60
2022/09/05 00:33:46;;;;;;;;;;;;;;;;;;5072091;28;19931;-60
2022/09/05 00:36:18;;;;;;;;;;;;;;;;;;5072426;28;19924;-60
2022/09/05 00:38:52;;;;;;;;;;;;;;;;;;5072261;28;19925;-61
2022/09/05 00:41:18;;;;;;;;;;;;;;;;;;5072141;28;19970;-64
2022/09/05 00:43:48;;;;;;;;;;;;;;;;;;5072415;28;19974;-61
2022/09/05 00:46:16;;;;;;;;;;;;;;;;;;5072156;28;20007;-61
2022/09/05 00:48:46;;;;;;;;;;;;;;;;;;5072023;28;19932;-60
2022/09/05 00:51:22;;;;;;;;;;;;;;;;;;5083373;22;20308;-63
2022/09/05 00:53:55;;;;;;;;;;;;;;;;;;5070994;28;19939;-62
2022/09/05 00:56:30;;;;;;;;;;;;;;;;;;5071963;28;19936;-62
2022/09/05 00:59:22;;;;;;;;;;;;;;;;;;5071818;28;19924;-62
2022/09/05 01:01:55;;;;;;;;;;;;;;;;;;5071624;28;19932;-62
2022/09/05 01:04:31;;;;;;;;;;;;;;;;;;5071789;28;20248;-62
2022/09/05 01:07:11;;;;;;;;;;;;;;;;;;5071852;28;20388;-62
2022/09/05 01:09:53;;;;;;;;;;;;;;;;;;5071813;28;19924;-62
2022/09/05 01:12:27;;;;;;;;;;;;;;;;;;5072168;28;20339;-62
2022/09/05 01:15:00;;;;;;;;;;;;;;;;;;5071582;28;20019;-62
2022/09/05 01:17:35;;;;;;;;;;;;;;;;;;5071585;28;19932;-62
2022/09/05 01:20:09;;;;;;;;;;;;;;;;;;5071623;28;19974;-62
2022/09/05 01:22:44;;;;;;;;;;;;;;;;;;5071564;28;19932;-62
2022/09/05 01:25:19;;;;;;;;;;;;;;;;;;5071668;28;19931;-62
2022/09/05 01:27:50;;;;;;;;;;;;;;;;;;5071524;28;19924;-62
2022/09/05 01:30:19;;;;;;;;;;;;;;;;;;5071564;28;20205;-62
2022/09/05 01:32:50;;;;;;;;;;;;;;;;;;5071102;28;19936;-62
2022/09/05 01:35:34;;;;;;;;;;;;;;;;;;5071436;28;19932;-62
2022/09/05 01:38:05;;;;;;;;;;;;;;;;;;5071139;28;19978;-63
2022/09/05 01:40:36;;;;;;;;;;;;;;;;;;5051909;28;19924;-62
2022/09/05 01:43:15;;;;;;;;;;;;;;;;;;5051131;28;19931;-62
2022/09/05 01:45:47;;;;;;;;;;;;;;;;;;5052631;28;19925;-62
2022/09/05 01:48:16;;;;;;;;;;;;;;;;;;5054743;28;19932;-63
2022/09/05 01:50:45;;;;;;;;;;;;;;;;;;5054559;28;19971;-62
2022/09/05 01:53:24;;;;;;;;;;;;;;;;;;5054873;28;19932;-62
2022/09/05 01:55:59;;;;;;;;;;;;;;;;;;5054699;28;19924;-62
2022/09/05 01:58:32;;;;;;;;;;;;;;;;;;5054662;28;19990;-62
2022/09/05 02:01:03;;;;;;;;;;;;;;;;;;5054354;28;20439;-62
2022/09/05 02:03:34;;;;;;;;;;;;;;;;;;5054303;28;19995;-62
2022/09/05 02:06:24;;;;;;;;;;;;;;;;;;5054711;28;19937;-63
2022/09/05 02:09:05;;;;;;;;;;;;;;;;;;5054584;28;19925;-62
2022/09/05 02:11:44;;;;;;;;;;;;;;;;;;5054486;28;19931;-62
2022/09/05 02:14:19;;;;;;;;;;;;;;;;;;5054282;28;19944;-62
2022/09/05 02:16:47;;;;;;;;;;;;;;;;;;5054355;28;20428;-62
2022/09/05 02:19:18;;;;;;;;;;;;;;;;;;5054355;28;19931;-62
2022/09/05 02:21:48;;;;;;;;;;;;;;;;;;5054307;28;19925;-61
2022/09/05 02:24:17;;;;;;;;;;;;;;;;;;5053925;28;19932;-62
2022/09/05 02:27:02;;;;;;;;;;;;;;;;;;5054283;28;20259;-62
2022/09/05 02:29:35;;;;;;;;;;;;;;;;;;5050215;28;19925;-62
2022/09/05 02:32:03;;;;;;;;;;;;;;;;;;5054008;28;19975;-62
2022/09/05 02:34:33;;;;;;;;;;;;;;;;;;5054007;28;19925;-62
2022/09/05 02:37:04;;;;;;;;;;;;;;;;;;5053773;28;19998;-62
2022/09/05 02:39:35;;;;;;;;;;;;;;;;;;5053906;28;19986;-62
2022/09/05 02:42:07;;;;;;;;;;;;;;;;;;5053960;28;19964;-62
2022/09/05 02:44:38;;;;;;;;;;;;;;;;;;5054204;28;19932;-62
2022/09/05 02:47:08;;;;;;;;;;;;;;;;;;5053838;28;20063;-62
2022/09/05 02:49:42;;;;;;;;;;;;;;;;;;5053655;28;20000;-62
2022/09/05 02:52:10;;;;;;;;;;;;;;;;;;5053836;28;19925;-62
2022/09/05 02:54:38;;;;;;;;;;;;;;;;;;5053745;28;19986;-62
2022/09/05 02:57:13;;;;;;;;;;;;;;;;;;5052346;28;20301;-62
2022/09/05 02:59:53;;;;;;;;;;;;;;;;;;5053627;28;19928;-62
2022/09/05 03:02:25;;;;;;;;;;;;;;;;;;5053609;28;19974;-61
2022/09/05 03:04:53;;;;;;;;;;;;;;;;;;5053488;28;19925;-62
2022/09/05 03:07:28;;;;;;;;;;;;;;;;;;5053376;28;20035;-62
2022/09/05 03:10:15;;;;;;;;;;;;;;;;;;5053432;28;19925;-61
2022/09/05 03:13:00;;;;;;;;;;;;;;;;;;5053559;28;19929;-62
2022/09/05 03:15:44;;;;;;;;;;;;;;;;;;5053405;28;19925;-62
2022/09/05 03:18:25;;;;;;;;;;;;;;;;;;5046116;28;19929;-63
2022/09/05 03:21:03;;;;;;;;;;;;;;;;;;5033530;28;19975;-62
2022/09/05 03:23:50;;;;;;;;;;;;;;;;;;5033064;28;19948;-62
2022/09/05 03:26:31;;;;;;;;;;;;;;;;;;5033403;28;19925;-62
2022/09/05 03:29:19;;;;;;;;;;;;;;;;;;5020311;28;19949;-62
2022/09/05 03:31:55;;;;;;;;;;;;;;;;;;5028087;28;20378;-62
2022/09/05 03:34:42;;;;;;;;;;;;;;;;;;5014505;28;23200;-62
2022/09/05 03:37:23;;;;;;;;;;;;;;;;;;5033179;28;19971;-62
2022/09/05 03:40:08;;;;;;;;;;;;;;;;;;5045691;28;19929;-62
2022/09/05 03:42:36;;;;;;;;;;;;;;;;;;5052926;28;19929;-62
2022/09/05 03:45:21;;;;;;;;;;;;;;;;;;5052920;28;20385;-62
2022/09/05 03:48:15;;;;;;;;;;;;;;;;;;5052901;28;20420;-62
2022/09/05 03:50:50;;;;;;;;;;;;;;;;;;5028013;28;19932;-62
2022/09/05 03:53:30;;;;;;;;;;;;;;;;;;5052642;28;19924;-62
2022/09/05 03:56:04;;;;;;;;;;;;;;;;;;5052669;28;19924;-62
2022/09/05 03:58:43;;;;;;;;;;;;;;;;;;5052607;28;19925;-62
2022/09/05 04:01:11;;;;;;;;;;;;;;;;;;5052685;28;19928;-62
2022/09/05 04:03:41;;;;;;;;;;;;;;;;;;5052327;28;19940;-62
2022/09/05 04:06:12;;;;;;;;;;;;;;;;;;5052867;28;20396;-62
2022/09/05 04:08:44;;;;;;;;;;;;;;;;;;5051832;28;19928;-62
2022/09/05 04:11:15;;;;;;;;;;;;;;;;;;5052437;28;20423;-62
2022/09/05 04:13:46;;;;;;;;;;;;;;;;;;5052246;28;19971;-62
2022/09/05 04:16:15;;;;;;;;;;;;;;;;;;5052544;28;20409;-62
2022/09/05 04:18:44;;;;;;;;;;;;;;;;;;5051954;28;19931;-62
2022/09/05 04:21:15;;;;;;;;;;;;;;;;;;5052252;28;20386;-62
2022/09/05 04:23:47;;;;;;;;;;;;;;;;;;5035001;28;19932;-62
2022/09/05 04:26:20;;;;;;;;;;;;;;;;;;5032375;28;19975;-62
2022/09/05 04:28:52;;;;;;;;;;;;;;;;;;5032317;28;19925;-62
2022/09/05 04:31:23;;;;;;;;;;;;;;;;;;5032239;28;20127;-62
2022/09/05 04:33:59;;;;;;;;;;;;;;;;;;5032114;28;19925;-62
2022/09/05 04:36:30;;;;;;;;;;;;;;;;;;5032331;28;19932;-62
2022/09/05 04:39:07;;;;;;;;;;;;;;;;;;5040567;28;19970;-62
2022/09/05 04:41:35;;;;;;;;;;;;;;;;;;5052591;28;19929;-62
2022/09/05 04:44:03;;;;;;;;;;;;;;;;;;5052073;28;19933;-62
2022/09/05 04:46:31;;;;;;;;;;;;;;;;;;5052073;28;19955;-62
2022/09/05 04:49:01;;;;;;;;;;;;;;;;;;5051982;28;19932;-62
2022/09/05 04:51:46;;;;;;;;;;;;;;;;;;5052377;28;19932;-63
2022/09/05 04:54:21;;;;;;;;;;;;;;;;;;5052389;28;19932;-62
2022/09/05 04:56:50;;;;;;;;;;;;;;;;;;5052489;28;19933;-62
2022/09/05 04:59:19;;;;;;;;;;;;;;;;;;5051915;28;19925;-62
2022/09/05 05:01:49;;;;;;;;;;;;;;;;;;5051866;28;20316;-63
2022/09/05 05:04:18;;;;;;;;;;;;;;;;;;5051715;28;20405;-62
2022/09/05 05:06:47;;;;;;;;;;;;;;;;;;5051998;28;19974;-62
2022/09/05 05:09:16;;;;;;;;;;;;;;;;;;5051743;28;19956;-62
2022/09/05 05:11:48;;;;;;;;;;;;;;;;;;5051524;28;19931;-62
2022/09/05 05:14:17;;;;;;;;;;;;;;;;;;5051195;28;19925;-62
2022/09/05 05:16:47;;;;;;;;;;;;;;;;;;5051949;28;19929;-61
2022/09/05 05:19:16;;;;;;;;;;;;;;;;;;5051544;28;19932;-61
2022/09/05 05:21:44;;;;;;;;;;;;;;;;;;5055026;28;19925;-61
2022/09/05 05:24:14;;;;;;;;;;;;;;;;;;5055350;28;19925;-62
2022/09/05 05:26:42;;;;;;;;;;;;;;;;;;5055433;28;19925;-61
2022/09/05 05:29:12;;;;;;;;;;;;;;;;;;5055601;28;19932;-61
2022/09/05 05:31:40;;;;;;;;;;;;;;;;;;5055414;28;19924;-61
2022/09/05 05:34:15;;;;;;;;;;;;;;;;;;5055258;28;20325;-61
2022/09/05 05:36:52;;;;;;;;;;;;;;;;;;5055043;28;20014;-61
2022/09/05 05:39:22;;;;;;;;;;;;;;;;;;5055295;28;20344;-60
2022/09/05 05:41:51;;;;;;;;;;;;;;;;;;5055059;28;19935;-62
2022/09/05 05:44:20;;;;;;;;;;;;;;;;;;5054898;28;19932;-62
2022/09/05 05:46:53;;;;;;;;;;;;;;;;;;5054941;28;19932;-62
2022/09/05 05:49:28;;;;;;;;;;;;;;;;;;5054876;28;20398;-62
2022/09/05 05:52:06;;;;;;;;;;;;;;;;;;5054823;28;19924;-62
2022/09/05 05:54:37;;;;;;;;;;;;;;;;;;5054686;28;19924;-62
2022/09/05 05:57:20;;;;;;;;;;;;;;;;;;5054855;28;19925;-62
2022/09/05 05:59:57;;;;;;;;;;;;;;;;;;5054742;28;19986;-62
2022/09/05 06:02:38;;;;;;;;;;;;;;;;;;5054541;28;19925;-61
2022/09/05 06:05:26;;;;;;;;;;;;;;;;;;5053400;28;19924;-62
2022/09/05 06:07:55;;;;;;;;;;;;;;;;;;5054576;28;19925;-60
2022/09/05 06:10:30;;;;;;;;;;;;;;;;;;5054314;28;19929;-62
2022/09/05 06:13:14;;;;;;;;;;;;;;;;;;5054356;28;19925;-62
2022/09/05 06:16:00;;;;;;;;;;;;;;;;;;5054415;28;19999;-62
2022/09/05 06:18:42;;;;;;;;;;;;;;;;;;5054739;28;20346;-62
2022/09/05 06:21:15;;;;;;;;;;;;;;;;;;5035699;28;20341;-62
2022/09/05 06:23:52;;;;;;;;;;;;;;;;;;5034105;28;19971;-62
2022/09/05 06:26:39;;;;;;;;;;;;;;;;;;5034381;28;19925;-62
2022/09/05 06:29:12;;;;;;;;;;;;;;;;;;5034546;28;19925;-61
2022/09/05 06:31:49;;;;;;;;;;;;;;;;;;5034143;28;20374;-62
2022/09/05 06:34:25;;;;;;;;;;;;;;;;;;5034362;28;19981;-62
2022/09/05 06:36:56;;;;;;;;;;;;;;;;;;5034619;28;20317;-62
2022/09/05 06:39:32;;;;;;;;;;;;;;;;;;5034158;28;20305;-62
2022/09/05 06:42:05;;;;;;;;;;;;;;;;;;5034480;28;20378;-62
2022/09/05 06:44:47;;;;;;;;;;;;;;;;;;5033950;28;19925;-61
2022/09/05 06:47:18;;;;;;;;;;;;;;;;;;5034181;28;19925;-62
2022/09/05 06:50:00;;;;;;;;;;;;;;;;;;5034281;28;20342;-62
2022/09/05 06:52:43;;;;;;;;;;;;;;;;;;5066033;22;19946;-77
2022/09/05 06:55:37;;;;;;;;;;;;;;;;;;5073476;28;19924;-76
2022/09/05 06:58:20;;;;;;;;;;;;;;;;;;5073978;28;19925;-77
2022/09/05 07:00:48;;;;;;;;;;;;;;;;;;5073744;28;20007;-77
2022/09/05 07:03:29;;;;;;;;;;;;;;;;;;5053797;28;19932;-77
2022/09/05 07:05:58;;;;;;;;;;;;;;;;;;5054083;28;19951;-76
2022/09/05 07:08:29;;;;;;;;;;;;;;;;;;5056650;28;20380;-77
2022/09/05 07:10:58;;;;;;;;;;;;;;;;;;5076666;28;19931;-83
2022/09/05 07:13:30;;;;;;;;;;;;;;;;;;5062591;28;19932;-78
2022/09/05 07:16:00;;;;;;;;;;;;;;;;;;5071410;28;19924;-78
2022/09/05 07:18:33;;;;;;;;;;;;;;;;;;5076180;28;19983;-78
2022/09/05 07:21:01;;;;;;;;;;;;;;;;;;5075534;28;19962;-78
2022/09/05 07:23:41;;;;;;;;;;;;;;;;;;5075955;28;19971;-77
2022/09/05 07:26:09;;;;;;;;;;;;;;;;;;5076189;28;19924;-79
2022/09/05 07:28:37;;;;;;;;;;;;;;;;;;5075126;28;19924;-78
2022/09/05 07:31:13;;;;;;;;;;;;;;;;;;5078401;28;19928;-78
2022/09/05 07:33:43;;;;;;;;;;;;;;;;;;5078846;28;19967;-77
2022/09/05 07:36:11;;;;;;;;;;;;;;;;;;5075894;28;20381;-79
2022/09/05 07:38:39;;;;;;;;;;;;;;;;;;5078890;28;19924;-78
2022/09/05 07:41:12;;;;;;;;;;;;;;;;;;5082527;28;19929;-77
2022/09/05 07:43:39;;;;;;;;;;;;;;;;;;5073896;28;19925;-77
2022/09/05 07:46:10;;;;;;;;;;;;;;;;;;5072412;28;19965;-77
2022/09/05 07:48:39;;;;;;;;;;;;;;;;;;5074533;28;20555;-78
2022/09/05 07:51:08;;;;;;;;;;;;;;;;;;5077475;28;19928;-78
2022/09/05 07:53:36;;;;;;;;;;;;;;;;;;5076047;28;19968;-77
2022/09/05 07:56:05;;;;;;;;;;;;;;;;;;5075664;28;19970;-77
2022/09/05 07:58:40;;;;;;;;;;;;;;;;;;5071594;28;19924;-77
2022/09/05 08:01:06;;;;;;;;;;;;;;;;;;5070146;28;20379;-77
2022/09/05 08:03:34;;;;;;;;;;;;;;;;;;5070580;28;19963;-76
2022/09/05 08:06:03;;;;;;;;;;;;;;;;;;5070901;28;20012;-78
2022/09/05 08:08:35;;;;;;;;;;;;;;;;;;5070740;28;20355;-76
2022/09/05 08:11:05;;;;;;;;;;;;;;;;;;5070333;28;19990;-78
2022/09/05 08:13:48;;;;;;;;;;;;;;;;;;5068113;28;20418;-76
2022/09/05 08:16:16;;;;;;;;;;;;;;;;;;5066604;28;19924;-76
2022/09/05 08:18:45;;;;;;;;;;;;;;;;;;5069173;28;20525;-77
2022/09/05 08:21:13;;;;;;;;;;;;;;;;;;5070058;28;19997;-76
2022/09/05 08:23:55;;;;;;;;;;;;;;;;;;5067322;28;19924;-76
2022/09/05 08:26:29;;;;;;;;;;;;;;;;;;5055760;28;20370;-75
2022/09/05 08:28:59;;;;;;;;;;;;;;;;;;5064337;28;20027;-77
2022/09/05 08:31:31;;;;;;;;;;;;;;;;;;5058594;28;19929;-78
2022/09/05 08:33:59;;;;;;;;;;;;;;;;;;5056763;28;19991;-77
2022/09/05 08:36:30;;;;;;;;;;;;;;;;;;5049332;28;20382;-77
2022/09/05 08:38:58;;;;;;;;;;;;;;;;;;5054454;28;20322;-77
2022/09/05 08:41:27;;;;;;;;;;;;;;;;;;5067391;28;19932;-77
2022/09/05 08:43:59;;;;;;;;;;;;;;;;;;5050557;28;19983;-77
2022/09/05 08:46:28;;;;;;;;;;;;;;;;;;5050781;28;20047;-77
2022/09/05 08:49:04;;;;;;;;;;;;;;;;;;5059433;28;20007;-77
2022/09/05 08:51:38;;;;;;;;;;;;;;;;;;5049955;28;19971;-77
2022/09/05 08:54:19;;;;;;;;;;;;;;;;;;5053091;28;19972;-77
2022/09/05 08:56:53;;;;;;;;;;;;;;;;;;5054415;28;19937;-77
2022/09/05 08:59:26;;;;;;;;;;;;;;;;;;5063471;28;19925;-77
2022/09/05 09:02:03;;;;;;;;;;;;;;;;;;5064521;28;19925;-76
2022/09/05 09:04:37;;;;;;;;;;;;;;;;;;5065404;28;19932;-77
2022/09/05 09:07:09;;;;;;;;;;;;;;;;;;5062214;28;19924;-77
2022/09/05 09:09:42;;;;;;;;;;;;;;;;;;5072218;28;19928;-76
2022/09/05 09:12:26;;;;;;;;;;;;;;;;;;5074020;28;19924;-78
2022/09/05 09:14:57;;;;;;;;;;;;;;;;;;5072414;28;19967;-77
2022/09/05 09:17:26;;;;;;;;;;;;;;;;;;5073359;28;20493;-77
2022/09/05 09:20:03;;;;;;;;;;;;;;;;;;5073449;28;19925;-76
2022/09/05 09:22:36;;;;;;;;;;;;;;;;;;5067017;28;19925;-77
2022/09/05 09:25:07;;;;;;;;;;;;;;;;;;5054103;28;20032;-76
2022/09/05 09:27:39;;;;;;;;;;;;;;;;;;5066882;28;19955;-76
2022/09/05 09:30:07;;;;;;;;;;;;;;;;;;5060788;28;19970;-78
2022/09/05 09:32:41;;;;;;;;;;;;;;;;;;5074370;28;19990;-78
2022/09/05 09:35:11;;;;;;;;;;;;;;;;;;5073498;28;19986;-77
2022/09/05 09:37:54;;;;;;;;;;;;;;;;;;5073237;28;20337;-77
2022/09/05 09:40:38;;;;;;;;;;;;;;;;;;5073455;28;20517;-77
2022/09/05 09:43:07;;;;;;;;;;;;;;;;;;5073149;28;20442;-77
2022/09/05 09:45:50;;;;;;;;;;;;;;;;;;5072946;28;19928;-78
2022/09/05 09:48:31;;;;;;;;;;;;;;;;;;5056928;28;19925;-76
2022/09/05 09:51:12;;;;;;;;;;;;;;;;;;5073855;28;20004;-78
2022/09/05 09:53:50;;;;;;;;;;;;;;;;;;5055757;28;20365;-76
2022/09/05 09:56:25;;;;;;;;;;;;;;;;;;5074205;28;20035;-77
2022/09/05 09:58:59;;;;;;;;;;;;;;;;;;5073578;28;19924;-77
2022/09/05 10:01:31;;;;;;;;;;;;;;;;;;5058903;28;19964;-76
2022/09/05 10:04:06;;;;;;;;;;;;;;;;;;5075628;28;20378;-76
2022/09/05 10:06:41;;;;;;;;;;;;;;;;;;5073810;28;20019;-76
2022/09/05 10:09:14;;;;;;;;;;;;;;;;;;5073138;28;20016;-76
2022/09/05 10:11:51;;;;;;;;;;;;;;;;;;5072940;28;19924;-76
2022/09/05 10:14:44;;;;;;;;;;;;;;;;;;5073723;28;19968;-76
2022/09/05 10:17:27;;;;;;;;;;;;;;;;;;5073073;28;19986;-76
2022/09/05 10:20:03;;;;;;;;;;;;;;;;;;5073154;28;19976;-76
2022/09/05 10:22:45;;;;;;;;;;;;;;;;;;5068651;28;20014;-76
2022/09/05 10:25:20;;;;;;;;;;;;;;;;;;5072653;28;19925;-76
2022/09/05 10:27:52;;;;;;;;;;;;;;;;;;5073139;28;19973;-76
2022/09/05 10:30:20;;;;;;;;;;;;;;;;;;5073433;28;19975;-76
2022/09/05 10:33:01;;;;;;;;;;;;;;;;;;5074070;28;19936;-76
2022/09/05 10:35:30;;;;;;;;;;;;;;;;;;5073447;28;19929;-75
2022/09/05 10:38:02;;;;;;;;;;;;;;;;;;5072208;28;19929;-75
2022/09/05 10:40:33;;;;;;;;;;;;;;;;;;5061858;28;19925;-75
2022/09/05 10:43:07;;;;;;;;;;;;;;;;;;5058500;28;19931;-75
2022/09/05 10:45:40;;;;;;;;;;;;;;;;;;5055263;28;19935;-75
2022/09/05 10:48:11;;;;;;;;;;;;;;;;;;5065996;28;19979;-76
2022/09/05 10:50:41;;;;;;;;;;;;;;;;;;5066166;28;20437;-76
2022/09/05 10:53:21;;;;;;;;;;;;;;;;;;5067778;28;19928;-76
2022/09/05 10:55:56;;;;;;;;;;;;;;;;;;5079472;28;19951;-75
2022/09/05 10:58:31;;;;;;;;;;;;;;;;;;5078391;28;19962;-74
2022/09/05 11:01:01;;;;;;;;;;;;;;;;;;5071674;28;19929;-74
2022/09/05 11:03:29;;;;;;;;;;;;;;;;;;5071655;28;19939;-74
2022/09/05 11:05:57;;;;;;;;;;;;;;;;;;5072008;28;19932;-76
2022/09/05 11:08:30;;;;;;;;;;;;;;;;;;5071537;28;20383;-75
2022/09/05 11:11:03;;;;;;;;;;;;;;;;;;5071962;28;19924;-75
2022/09/05 11:13:38;;;;;;;;;;;;;;;;;;5071713;28;20049;-76
2022/09/05 11:16:09;;;;;;;;;;;;;;;;;;5051766;28;20007;-74
2022/09/05 11:18:51;;;;;;;;;;;;;;;;;;5051054;28;19956;-75
2022/09/05 11:21:20;;;;;;;;;;;;;;;;;;5051122;28;20016;-75
2022/09/05 11:23:49;;;;;;;;;;;;;;;;;;5050120;28;19925;-77
2022/09/05 11:26:31;;;;;;;;;;;;;;;;;;5067596;28;19925;-75
2022/09/05 11:29:01;;;;;;;;;;;;;;;;;;5071193;28;19928;-77
2022/09/05 11:31:32;;;;;;;;;;;;;;;;;;5071076;28;20026;-76
2022/09/05 11:34:09;;;;;;;;;;;;;;;;;;5070689;28;20358;-76
2022/09/05 11:36:41;;;;;;;;;;;;;;;;;;5051010;28;19933;-76
2022/09/05 11:39:12;;;;;;;;;;;;;;;;;;5050556;28;19972;-76
2022/09/05 11:41:59;;;;;;;;;;;;;;;;;;5062389;28;19951;-76
2022/09/05 11:44:28;;;;;;;;;;;;;;;;;;5071337;28;19924;-76
2022/09/05 11:47:07;;;;;;;;;;;;;;;;;;5070605;28;20408;-76
2022/09/05 11:49:56;;;;;;;;;;;;;;;;;;5070119;28;20367;-77
2022/09/05 11:52:40;;;;;;;;;;;;;;;;;;5070867;28;20007;-76
2022/09/05 11:55:29;;;;;;;;;;;;;;;;;;5071014;28;19924;-77
2022/09/05 11:58:10;;;;;;;;;;;;;;;;;;5071020;28;19972;-76
2022/09/05 12:00:41;;;;;;;;;;;;;;;;;;5069599;28;19955;-76
2022/09/05 12:03:35;;;;;;;;;;;;;;;;;;5070534;28;19929;-76
2022/09/05 12:06:19;;;;;;;;;;;;;;;;;;5070493;28;19935;-76
2022/09/05 12:08:51;;;;;;;;;;;;;;;;;;5049291;28;19974;-76
2022/09/05 12:11:21;;;;;;;;;;;;;;;;;;5070411;28;19972;-76
2022/09/05 12:13:54;;;;;;;;;;;;;;;;;;5059391;28;19928;-76
2022/09/05 12:16:25;;;;;;;;;;;;;;;;;;5050546;28;19925;-76
2022/09/05 12:19:00;;;;;;;;;;;;;;;;;;5050191;28;19988;-76
2022/09/05 12:21:33;;;;;;;;;;;;;;;;;;5049482;28;20395;-76
2022/09/05 12:24:04;;;;;;;;;;;;;;;;;;5050475;28;19975;-76
2022/09/05 12:26:33;;;;;;;;;;;;;;;;;;5050364;28;19999;-75
2022/09/05 12:29:03;;;;;;;;;;;;;;;;;;5049699;28;20363;-77
2022/09/05 12:31:32;;;;;;;;;;;;;;;;;;5050254;28;19931;-75
2022/09/05 12:34:00;;;;;;;;;;;;;;;;;;5050353;28;19983;-76
2022/09/05 12:36:34;;;;;;;;;;;;;;;;;;5050024;28;19924;-76
2022/09/05 12:39:02;;;;;;;;;;;;;;;;;;5049272;28;19924;-76
2022/09/05 12:41:37;;;;;;;;;;;;;;;;;;5049939;28;19980;-76
2022/09/05 12:44:23;;;;;;;;;;;;;;;;;;5050483;28;20351;-76
2022/09/05 12:46:55;;;;;;;;;;;;;;;;;;5050282;28;19975;-76
2022/09/05 12:49:27;;;;;;;;;;;;;;;;;;5050106;28;19925;-76
2022/09/05 12:54:35;;;;;;;;;;;;;;;;;;5094999;28;19924;-77
2022/09/05 12:57:06;;;;;;;;;;;;;;;;;;5095037;28;19934;-78
2022/09/05 12:59:35;;;;;;;;;;;;;;;;;;5093264;28;20092;-78
2022/09/05 13:02:06;;;;;;;;;;;;;;;;;;5092906;28;19928;-78
2022/09/05 13:04:34;;;;;;;;;;;;;;;;;;5078836;28;19931;-78
2022/09/05 13:07:06;;;;;;;;;;;;;;;;;;5080743;28;19995;-80
2022/09/05 13:09:35;;;;;;;;;;;;;;;;;;5080831;28;19935;-77
2022/09/05 13:12:07;;;;;;;;;;;;;;;;;;5078803;28;19975;-79
2022/09/05 13:14:41;;;;;;;;;;;;;;;;;;5074360;28;19925;-78
2022/09/05 13:17:09;;;;;;;;;;;;;;;;;;5088244;28;19928;-81
2022/09/05 13:19:39;;;;;;;;;;;;;;;;;;5092462;28;20453;-79
2022/09/05 13:22:08;;;;;;;;;;;;;;;;;;5093383;28;20290;-77
2022/09/05 13:24:39;;;;;;;;;;;;;;;;;;5093745;28;20387;-77
2022/09/05 13:27:12;;;;;;;;;;;;;;;;;;5093862;28;19924;-79
2022/09/05 13:29:47;;;;;;;;;;;;;;;;;;5086184;28;19925;-79
2022/09/05 13:32:14;;;;;;;;;;;;;;;;;;5094145;28;19924;-77
2022/09/05 13:34:42;;;;;;;;;;;;;;;;;;5094275;28;19924;-77
2022/09/05 13:37:12;;;;;;;;;;;;;;;;;;5093279;28;19985;-78
2022/09/05 13:39:42;;;;;;;;;;;;;;;;;;5075940;28;19925;-78
2022/09/05 13:42:17;;;;;;;;;;;;;;;;;;5090515;28;20040;-82
2022/09/05 13:44:46;;;;;;;;;;;;;;;;;;5095651;28;19971;-79
2022/09/05 13:47:16;;;;;;;;;;;;;;;;;;5095677;28;19947;-79
2022/09/05 13:49:44;;;;;;;;;;;;;;;;;;5091861;28;20406;-76
2022/09/05 13:52:20;;;;;;;;;;;;;;;;;;5090503;28;19974;-78
2022/09/05 13:54:50;;;;;;;;;;;;;;;;;;5096444;28;20449;-78
2022/09/05 13:57:26;;;;;;;;;;;;;;;;;;5095305;28;20468;-77
2022/09/05 14:00:11;;;;;;;;;;;;;;;;;;5087178;28;20333;-79
2022/09/05 14:02:44;;;;;;;;;;;;;;;;;;5095191;28;19928;-79
2022/09/05 14:05:27;;;;;;;;;;;;;;;;;;5100568;28;20463;-78
2022/09/05 14:08:22;;;;;;;;;;;;;;;;;;5098927;28;20290;-77
2022/09/05 14:11:02;;;;;;;;;;;;;;;;;;5060705;28;19925;-78
2022/09/05 14:13:32;;;;;;;;;;;;;;;;;;5100140;28;20302;-79
2022/09/05 14:15:59;;;;;;;;;;;;;;;;;;5097500;28;19977;-78
2022/09/05 14:18:29;;;;;;;;;;;;;;;;;;5098938;28;19924;-81
2022/09/05 14:21:15;;;;;;;;;;;;;;;;;;5099401;28;20010;-77
2022/09/05 14:23:52;;;;;;;;;;;;;;;;;;5098011;28;20373;-78
2022/09/05 14:26:24;;;;;;;;;;;;;;;;;;5101149;28;19967;-78
2022/09/05 14:28:56;;;;;;;;;;;;;;;;;;5097604;28;19997;-77
2022/09/05 14:31:28;;;;;;;;;;;;;;;;;;5096519;28;19928;-77
2022/09/05 14:34:10;;;;;;;;;;;;;;;;;;5095895;28;20623;-78
2022/09/05 14:36:53;;;;;;;;;;;;;;;;;;5096374;28;20031;-78
2022/09/05 14:39:27;;;;;;;;;;;;;;;;;;5091700;28;20477;-78
2022/09/05 14:42:03;;;;;;;;;;;;;;;;;;5083275;28;19952;-77
2022/09/05 14:44:48;;;;;;;;;;;;;;;;;;5094875;28;19943;-78
2022/09/05 14:47:29;;;;;;;;;;;;;;;;;;5097834;28;19934;-77
2022/09/05 14:50:14;;;;;;;;;;;;;;;;;;5094049;28;19924;-80
2022/09/05 14:52:57;;;;;;;;;;;;;;;;;;5084490;28;19924;-79
2022/09/05 14:55:23;;;;;;;;;;;;;;;;;;5085482;28;19964;-79
2022/09/05 14:57:50;;;;;;;;;;;;;;;;;;5091660;28;19982;-77
2022/09/05 15:00:19;;;;;;;;;;;;;;;;;;5096079;28;19991;-78
2022/09/05 15:02:47;;;;;;;;;;;;;;;;;;5112489;28;19935;-78
2022/09/05 15:05:19;;;;;;;;;;;;;;;;;;5111922;28;19920;-79
2022/09/05 15:07:47;;;;;;;;;;;;;;;;;;5106794;28;20425;-76
2022/09/05 15:10:25;;;;;;;;;;;;;;;;;;5095020;28;19970;-76
2022/09/05 15:12:53;;;;;;;;;;;;;;;;;;5094580;28;20382;-82
2022/09/05 15:15:24;;;;;;;;;;;;;;;;;;5094367;28;19928;-76
2022/09/05 15:17:54;;;;;;;;;;;;;;;;;;5100427;28;20015;-79
2022/09/05 15:20:27;;;;;;;;;;;;;;;;;;5094113;28;19977;-79
2022/09/05 15:22:56;;;;;;;;;;;;;;;;;;5094413;28;20063;-77
2022/09/05 15:25:23;;;;;;;;;;;;;;;;;;5093929;28;20034;-78
2022/09/05 15:27:50;;;;;;;;;;;;;;;;;;5093586;28;19963;-78
2022/09/05 15:30:18;;;;;;;;;;;;;;;;;;5092391;28;19970;-78
2022/09/05 15:32:46;;;;;;;;;;;;;;;;;;5093473;28;20011;-77
2022/09/05 15:35:14;;;;;;;;;;;;;;;;;;5094118;28;19931;-78
2022/09/05 15:37:42;;;;;;;;;;;;;;;;;;5093344;28;20007;-79
2022/09/05 15:40:12;;;;;;;;;;;;;;;;;;5093963;28;20016;-77
2022/09/05 15:42:41;;;;;;;;;;;;;;;;;;5093318;28;19924;-76
2022/09/05 15:45:10;;;;;;;;;;;;;;;;;;5096110;28;20471;-79
2022/09/05 15:47:37;;;;;;;;;;;;;;;;;;5095084;28;20019;-78
2022/09/05 15:50:06;;;;;;;;;;;;;;;;;;5091865;28;20415;-78
2022/09/05 15:52:37;;;;;;;;;;;;;;;;;;5093089;28;20019;-79
2022/09/05 15:55:09;;;;;;;;;;;;;;;;;;5092806;28;19963;-79
2022/09/05 15:57:39;;;;;;;;;;;;;;;;;;5092265;28;19930;-78
2022/09/05 16:00:06;;;;;;;;;;;;;;;;;;5092495;28;19924;-78
2022/09/05 16:02:34;;;;;;;;;;;;;;;;;;5093809;28;19963;-77
2022/09/05 16:05:06;;;;;;;;;;;;;;;;;;5091798;28;19990;-78
2022/09/05 16:07:35;;;;;;;;;;;;;;;;;;5092397;28;19971;-79
2022/09/05 16:10:02;;;;;;;;;;;;;;;;;;5093142;28;20023;-78
2022/09/05 16:12:32;;;;;;;;;;;;;;;;;;5092867;28;19931;-81
2022/09/05 16:15:00;;;;;;;;;;;;;;;;;;5092822;28;19975;-79
2022/09/05 16:17:30;;;;;;;;;;;;;;;;;;5093444;28;19974;-79
2022/09/05 16:19:59;;;;;;;;;;;;;;;;;;5093165;28;19946;-79
2022/09/05 16:22:27;;;;;;;;;;;;;;;;;;5092052;28;20386;-78
2022/09/05 16:24:56;;;;;;;;;;;;;;;;;;5093065;28;20007;-78
2022/09/05 16:27:35;;;;;;;;;;;;;;;;;;5092715;28;19931;-77
2022/09/05 16:36:11;;;;;;;;;;;;;;;;;;5095527;28;19923;-78
2022/09/05 16:38:41;;;;;;;;;;;;;;;;;;5092601;28;20005;-79
2022/09/05 16:41:09;;;;;;;;;;;;;;;;;;5092237;28;19930;-78
2022/09/05 16:43:37;;;;;;;;;;;;;;;;;;5093755;28;19924;-77
2022/09/05 16:46:06;;;;;;;;;;;;;;;;;;5092922;28;19924;-77
2022/09/05 16:48:39;;;;;;;;;;;;;;;;;;5092362;28;19969;-79
2022/09/05 16:51:14;;;;;;;;;;;;;;;;;;5091075;28;20010;-78
2022/09/05 16:53:41;;;;;;;;;;;;;;;;;;5091278;28;19935;-77
2022/09/05 16:56:11;;;;;;;;;;;;;;;;;;5091030;28;20477;-79
2022/09/05 16:58:39;;;;;;;;;;;;;;;;;;5091271;28;19924;-77
2022/09/05 17:01:18;;;;;;;;;;;;;;;;;;5091026;28;19989;-79
2022/09/05 17:03:51;;;;;;;;;;;;;;;;;;5091466;28;20301;-79
2022/09/05 17:06:21;;;;;;;;;;;;;;;;;;5091602;28;19924;-78
2022/09/05 17:08:49;;;;;;;;;;;;;;;;;;5091019;28;20301;-77
2022/09/05 17:11:16;;;;;;;;;;;;;;;;;;5092453;28;19968;-80
2022/09/05 17:13:45;;;;;;;;;;;;;;;;;;5093805;28;19924;-79
2022/09/05 17:16:13;;;;;;;;;;;;;;;;;;5091518;28;19975;-78
2022/09/05 17:18:41;;;;;;;;;;;;;;;;;;5095211;28;19974;-79
2022/09/05 17:21:10;;;;;;;;;;;;;;;;;;5094605;28;20399;-78
2022/09/05 17:23:40;;;;;;;;;;;;;;;;;;5096009;28;19978;-78
2022/09/05 17:26:07;;;;;;;;;;;;;;;;;;5095779;28;19971;-79
2022/09/05 17:29:00;;;;;;;;;;;;;;;;;;5094936;28;19971;-79
2022/09/05 17:31:33;;;;;;;;;;;;;;;;;;5094294;28;19963;-79
2022/09/05 17:34:14;;;;;;;;;;;;;;;;;;5094576;28;19924;-80
2022/09/05 17:36:45;;;;;;;;;;;;;;;;;;5095115;28;19924;-79